METAR v bližini

 

LJMB - Maribor Edvarda Rusjana, Slovenia
Oddaljenost od postaje: SV 30,9km
Podatki zajeti: 29/10/2020 12:00
Rahlo dežuje, Oblačno
Rahlo dežuje, Oblačno
 Veter iz smeri JJV
Veter: JJV 7 km/h
Temperatura: 11°C
Rosišče: 8°C
Vlažnost: 82%
Tlak: 1018 hPa
Stanje: Rahlo dežuje
Oblačnost: Oblačno
Vidljivost: 10 km
Podrobnosti o oblakih: Oblačno 1128 m
2020/10/29 11:00 LJMB 291100Z 16004KT 9999 -RA OVC037 11/08 Q1018
LJLJ - Ljubljana Brnik, Slovenia
Oddaljenost od postaje: S 103km
Podatki zajeti: 29/10/2020 12:00
Pretežno oblačno
Pretežno oblačno
 Veter iz smeri V
Veter: V 11 km/h
Temperatura: 11°C
Rosišče: 8°C
Vlažnost: 82%
Tlak: 1018 hPa
Oblačnost: Pretežno oblačno
Vidljivost: 10 km
Podrobnosti o oblakih: Rahlo oblačno 914 m
Pretežno oblačno 3353 m
2020/10/29 11:00 LJLJ 291100Z 10006KT 9999 FEW030 BKN110 11/08 Q1018 NOSIG
 
LJPZ - Portorož, Slovenia
Oddaljenost od postaje: SSZ 224km
Podatki zajeti: 29/10/2020 12:00
Jasno
Jasno
 Veter iz smeri Z
Veter: Z 9 km/h
Temperatura: 16°C
Rosišče: 11°C
Vlažnost: 72%
Tlak: 1018 hPa
Stanje: Jasno
Vidljivost: večja od 10 km
2020/10/29 11:00 LJPZ 291100Z 28005KT 250V310 CAVOK 16/11 Q1018
LJCE - Cerklje, Slovenia
Oddaljenost od postaje: VSV 83,9km
Podatki zajeti: 29/10/2020 12:00
Oblačno
Oblačno
 Veter iz smeri Z
Veter: Z 11 km/h
Temperatura: 11°C
Rosišče: 10°C
Vlažnost: 94%
Tlak: 1019 hPa
Oblačnost: Oblačno
Vidljivost: 10 km
Podrobnosti o oblakih: Rahlo oblačno 152 m
Delno oblačno 701 m
Oblačno 1067 m
2020/10/29 11:00 LJCE 291100Z 26006KT 9999 FEW005 SCT023 OVC035 11/10 Q1019
 
LOWG - Graz, Austria
Oddaljenost od postaje: SSZ 99,6km
Podatki zajeti: 29/10/2020 11:50
Delno oblačno
Delno oblačno
 Veter iz smeri J
Veter: J 6 km/h
Temperatura: 9°C
Rosišče: 8°C
Vlažnost: 94%
Tlak: 1018 hPa
Oblačnost: Delno oblačno
Vidljivost: 10 km
Podrobnosti o oblakih: Rahlo oblačno 1067 m
Delno oblačno 1829 m
2020/10/29 10:50 LOWG 291050Z 17003KT 140V200 9999 FEW035 SCT060 09/08 Q1018 NOSIG
LOWK - Klagenfurt, Austria
Oddaljenost od postaje: SZ 121km
Podatki zajeti: 29/10/2020 11:50
Delno oblačno
Delno oblačno
 Veter iz smeri spremenljiv
Veter: spremenljiv 4 km/h
Temperatura: 7°C
Rosišče: 5°C
Vlažnost: 87%
Tlak: 1020 hPa
Oblačnost: Delno oblačno
Vidljivost: 10 km
Podrobnosti o oblakih: Rahlo oblačno 244 m
Delno oblačno 2438 m
2020/10/29 10:50 LOWK 291050Z VRB02KT 9999 FEW008 SCT080 07/05 Q1020 NOSIG
 
LDRI - Rijeka, Croatia
Oddaljenost od postaje: SZ 243km
Podatki zajeti: 29/10/2020 12:00
Jasno
Jasno
 Veter iz smeri spremenljiv
Veter: spremenljiv 6 km/h
Temperatura: 17°C
Rosišče: 8°C
Vlažnost: 56%
Tlak: 1018 hPa
Stanje: Jasno
Vidljivost: večja od 10 km
2020/10/29 11:00 LDRI 291100Z VRB03KT CAVOK 17/08 Q1018
LIPQ - Ronchi, Italy
Oddaljenost od postaje: VJV 224km
Podatki zajeti: 29/10/2020 11:50
Pretežno oblačno
Pretežno oblačno
 Veter iz smeri JJV
Veter: JJV 6 km/h
Temperatura: 16°C
Rosišče: 10°C
Vlažnost: 68%
Tlak: 1018 hPa
Oblačnost: Pretežno oblačno
Vidljivost: 10 km
Podrobnosti o oblakih: Pretežno oblačno 4572 m
2020/10/29 10:50 LIPQ 291050Z AUTO 15003KT 090V210 9999 BKN150/// 16/10 Q1018
 
LDZA - Zagreb, Croatia
Oddaljenost od postaje: JJV 143km
Podatki zajeti: 29/10/2020 12:00
Oblačno
Oblačno
 Veter iz smeri ZJZ
Veter: ZJZ 11 km/h
Temperatura: 13°C
Rosišče: 10°C
Vlažnost: 82%
Tlak: 1018 hPa
Oblačnost: Oblačno
Vidljivost: 10 km
Podrobnosti o oblakih: Oblačno 1219 m
2020/10/29 11:00 LDZA 291100Z 25006KT 9999 OVC040 13/10 Q1018 NOSIG
LIVT - Trieste, Italy
Oddaljenost od postaje: ZSZ 250km
Podatki zajeti: 29/10/2020 11:55
Delno oblačno
Delno oblačno
 Veter iz smeri spremenljiv
Veter: spremenljiv 0 km/h
Temperatura: 15°C
Rosišče: 11°C
Vlažnost: 77%
Tlak: 1018 hPa
Oblačnost: Delno oblačno
Vidljivost: 10 km
Podrobnosti o oblakih: Delno oblačno 1219 m
2020/10/29 10:55 LIVT 291055Z /////KT 9999 SCT040 15/11 Q1018 RMK SCT QUK 1 QUL 0 VIS MAR 20 KM VIS MIN 9999
 
LIPA - Aviano, Italy
Oddaljenost od postaje: S 310km
Podatki zajeti: 29/10/2020 11:55
Delno oblačno
Delno oblačno
 Veter iz smeri V
Veter: V 2 km/h
Temperatura: 15°C
Rosišče: 12°C
Vlažnost: 82%
Tlak: 1018 hPa
Oblačnost: Delno oblačno
Vidljivost: 10 km
Podrobnosti o oblakih: Delno oblačno 3048 m
2020/10/29 10:55 LIPA 291055Z 10001KT 9999 SCT100 15/12 Q1018 RMK SCT VIS MIN 9999 WIND THR05 /////KT WIND THR23 /////KT A3007 BLU
LDPL - Pula, Croatia
Oddaljenost od postaje: SSV 304km
Podatki zajeti: 29/10/2020 12:00
Rahlo oblačno
Rahlo oblačno
 Veter iz smeri Z
Veter: Z 13 km/h
Temperatura: 16°C
Rosišče: 11°C
Vlažnost: 72%
Tlak: 1018 hPa
Oblačnost: Rahlo oblačno
Vidljivost: 10 km
Podrobnosti o oblakih: Rahlo oblačno 610 m
2020/10/29 11:00 LDPL 291100Z 27007KT 9999 FEW020 16/11 Q1018 BECMG 28012KT